Terminal Aerodrome Forecast
Issued by NWS Billings, MT

Home | Current Version | Previous Version | Text Only | Print | Product List | Glossary On
Versions: 1 2 3 4 5 6 7 8 9 10 11 12 13 14 15 16
000
FTUS45 KBYZ 190535
TAFBIL
TAF
KBIL 190535Z 1906/2006 24011KT P6SM SCT110 BKN200
     FM190900 36010KT P6SM BKN050 OVC100
     FM191200 VRB06KT 5SM -SN BR SCT003 BKN015 OVC030
     FM191800 VRB06KT P6SM VCSH SCT020 OVC040
     FM192200 VRB06KT 5SM -SN BR BKN020 OVC040=

USA.gov is the U.S. government's official web portal to all federal, state and local government web resources and services.